Terminal Aerodrome Forecast
Issued by NWS

Home | Current Version | Previous Version | Text Only | Print | Product List | Glossary On
Versions: 1 2 3 4 5 6 7 8 9 10 11 12 13 14 15 16 17 18 19 20
973
FTUS46 KPDT 041901 AAB
TAFBDN
TAF AMD
KBDN 041901Z 0419/0518 32009KT 3SM -SN BKN007 OVC013
      TEMPO 0419/0421 2SM -SN BKN004 OVC007
     FM042100 31010G18KT P6SM VCSH BKN025 OVC035
     FM042300 31012G20KT P6SM BKN040 OVC050
     FM050300 29007KT P6SM SCT040 BKN060
     FM050500 22006KT P6SM BKN060 OVC080=

USA.gov is the U.S. government's official web portal to all federal, state and local government web resources and services.